Time,TemperatureF,DewpointF,PressureIn,WindDirection,WindDirectionDegrees,WindSpeedMPH,WindSpeedGustMPH,Humidity,HourlyPrecipIn,Conditions,Clouds,dailyrainin,SoftwareType,DateUTC
2013-07-13 00:02:00,64.0,57.4,29.92,East,86,0.0,0.0,79,0.00,,CLR,0.00,VWS V14.01,2013-07-13 04:02:00,
2013-07-13 00:07:00,64.0,57.4,29.92,East,86,0.0,0.0,79,0.00,,CLR,0.00,VWS V14.01,2013-07-13 04:07:00,
2013-07-13 00:14:00,63.9,57.3,29.92,East,86,0.0,0.0,79,0.00,,CLR,0.00,VWS V14.01,2013-07-13 04:14:00,
2013-07-13 00:22:00,63.7,57.4,29.92,East,86,0.0,0.0,80,0.00,,CLR,0.00,VWS V14.01,2013-07-13 04:22:00,
2013-07-13 00:27:00,63.5,57.6,29.92,East,86,0.0,0.0,81,0.00,,CLR,0.00,VWS V14.01,2013-07-13 04:27:00,
2013-07-13 00:32:00,63.4,57.5,29.93,East,86,0.0,0.0,81,0.00,,CLR,0.00,VWS V14.01,2013-07-13 04:32:00,
2013-07-13 00:37:00,62.9,57.3,29.93,East,86,0.0,0.0,82,0.00,,CLR,0.00,VWS V14.01,2013-07-13 04:37:00,
2013-07-13 00:42:00,62.4,56.8,29.93,East,86,0.0,0.0,82,0.00,,CLR,0.00,VWS V14.01,2013-07-13 04:42:00,
2013-07-13 00:47:00,62.1,56.9,29.92,East,86,0.0,0.0,83,0.00,,CLR,0.00,VWS V14.01,2013-07-13 04:47:00,
2013-07-13 00:52:00,61.8,56.9,29.92,East,86,0.0,0.0,84,0.00,,CLR,0.00,VWS V14.01,2013-07-13 04:52:00,
2013-07-13 00:57:00,61.8,56.9,29.92,East,86,0.0,0.0,84,0.00,,CLR,0.00,VWS V14.01,2013-07-13 04:57:00,
2013-07-13 01:02:00,61.8,57.2,29.92,East,86,0.0,0.0,85,0.00,,CLR,0.00,VWS V14.01,2013-07-13 05:02:00,
2013-07-13 01:12:00,62.0,57.8,29.92,East,86,0.0,0.0,86,0.00,,CLR,0.00,VWS V14.01,2013-07-13 05:12:00,
2013-07-13 01:17:00,61.8,57.2,29.92,East,86,0.0,0.0,85,0.00,,CLR,0.00,VWS V14.01,2013-07-13 05:17:00,
2013-07-13 01:22:00,61.6,57.4,29.92,East,86,0.0,0.0,86,0.00,,CLR,0.00,VWS V14.01,2013-07-13 05:22:00,
2013-07-13 01:27:00,61.5,57.3,29.92,East,86,0.0,0.0,86,0.00,,CLR,0.00,VWS V14.01,2013-07-13 05:27:00,
2013-07-13 01:32:00,61.3,56.8,29.92,East,86,0.0,0.0,85,0.00,,CLR,0.00,VWS V14.01,2013-07-13 05:32:00,
2013-07-13 01:37:00,61.0,56.5,29.92,East,86,0.0,0.0,85,0.00,,CLR,0.00,VWS V14.01,2013-07-13 05:37:00,
2013-07-13 01:42:00,61.0,56.8,29.92,East,86,0.0,0.0,86,0.00,,CLR,0.00,VWS V14.01,2013-07-13 05:42:00,
2013-07-13 01:52:00,61.0,56.5,29.92,East,86,0.0,0.0,85,0.00,,CLR,0.00,VWS V14.01,2013-07-13 05:52:00,
2013-07-13 01:57:00,61.0,56.5,29.92,East,86,0.0,0.0,85,0.00,,CLR,0.00,VWS V14.01,2013-07-13 05:57:00,
2013-07-13 02:02:00,61.0,56.5,29.92,East,86,0.0,0.0,85,0.00,,CLR,0.00,VWS V14.01,2013-07-13 06:02:00,
2013-07-13 02:12:00,60.7,56.5,29.92,East,86,0.0,0.0,86,0.00,,CLR,0.00,VWS V14.01,2013-07-13 06:12:00,
2013-07-13 02:17:00,60.5,56.3,29.93,East,86,0.0,0.0,86,0.00,,CLR,0.00,VWS V14.01,2013-07-13 06:17:00,
2013-07-13 02:22:00,60.2,56.0,29.93,East,86,0.0,0.0,86,0.00,,CLR,0.00,VWS V14.01,2013-07-13 06:22:00,
2013-07-13 02:27:00,60.1,55.9,29.93,East,86,0.0,0.0,86,0.00,,CLR,0.00,VWS V14.01,2013-07-13 06:27:00,
2013-07-13 02:32:00,59.9,55.7,29.92,East,86,0.0,0.0,86,0.00,,CLR,0.00,VWS V14.01,2013-07-13 06:32:00,
2013-07-13 02:37:00,59.9,55.7,29.92,East,86,0.0,0.0,86,0.00,,CLR,0.00,VWS V14.01,2013-07-13 06:37:00,
2013-07-13 02:42:00,59.9,55.7,29.92,East,86,0.0,0.0,86,0.00,,CLR,0.00,VWS V14.01,2013-07-13 06:42:00,
2013-07-13 02:47:00,59.9,56.0,29.92,East,86,0.0,0.0,87,0.00,,CLR,0.00,VWS V14.01,2013-07-13 06:47:00,
2013-07-13 02:52:00,59.9,56.0,29.92,East,86,0.0,0.0,87,0.00,,CLR,0.00,VWS V14.01,2013-07-13 06:52:00,
2013-07-13 02:57:00,60.1,56.2,29.92,East,86,0.0,0.0,87,0.00,,CLR,0.00,VWS V14.01,2013-07-13 06:57:00,
2013-07-13 03:02:00,59.9,56.0,29.93,East,86,0.0,0.0,87,0.00,,CLR,0.00,VWS V14.01,2013-07-13 07:02:00,
2013-07-13 03:12:00,59.8,55.9,29.93,East,86,0.0,0.0,87,0.00,,CLR,0.00,VWS V14.01,2013-07-13 07:12:00,
2013-07-13 03:17:00,59.6,55.7,29.92,East,86,0.0,0.0,87,0.00,,CLR,0.00,VWS V14.01,2013-07-13 07:17:00,
2013-07-13 03:22:00,59.5,56.0,29.92,East,86,0.0,0.0,88,0.00,,CLR,0.00,VWS V14.01,2013-07-13 07:22:00,
2013-07-13 03:32:00,59.0,55.5,29.92,East,86,0.0,0.0,88,0.00,,CLR,0.00,VWS V14.01,2013-07-13 07:32:00,
2013-07-13 03:42:00,58.9,55.4,29.92,East,86,0.0,0.0,88,0.00,,CLR,0.00,VWS V14.01,2013-07-13 07:42:00,
2013-07-13 03:52:00,59.0,55.5,29.93,East,86,0.0,0.0,88,0.00,,CLR,0.00,VWS V14.01,2013-07-13 07:52:00,
2013-07-13 04:02:00,58.9,55.4,29.93,East,86,0.0,0.0,88,0.00,,CLR,0.00,VWS V14.01,2013-07-13 08:02:00,
2013-07-13 04:07:00,58.6,55.1,29.93,East,86,0.0,0.0,88,0.00,,CLR,0.00,VWS V14.01,2013-07-13 08:07:00,
2013-07-13 04:17:00,58.3,54.8,29.94,East,86,0.0,0.0,88,0.00,,CLR,0.00,VWS V14.01,2013-07-13 08:17:00,
2013-07-13 04:22:00,58.0,54.5,29.94,East,86,0.0,0.0,88,0.00,,CLR,0.00,VWS V14.01,2013-07-13 08:22:00,
2013-07-13 04:27:00,57.8,54.3,29.94,East,86,0.0,0.0,88,0.00,,CLR,0.00,VWS V14.01,2013-07-13 08:27:00,
2013-07-13 04:37:00,57.5,54.0,29.94,East,86,0.0,0.0,88,0.00,,CLR,0.00,VWS V14.01,2013-07-13 08:37:00,
2013-07-13 04:42:00,57.3,54.1,29.94,East,86,0.0,0.0,89,0.00,,CLR,0.00,VWS V14.01,2013-07-13 08:42:00,
2013-07-13 04:52:00,57.3,54.1,29.94,East,86,0.0,0.0,89,0.00,,CLR,0.00,VWS V14.01,2013-07-13 08:52:00,
2013-07-13 04:57:00,57.2,54.0,29.94,East,86,0.0,0.0,89,0.00,,CLR,0.00,VWS V14.01,2013-07-13 08:57:00,
2013-07-13 05:07:00,57.0,53.8,29.94,East,86,0.0,0.0,89,0.00,,CLR,0.00,VWS V14.01,2013-07-13 09:07:00,
2013-07-13 05:12:00,56.9,53.7,29.94,East,86,0.0,0.0,89,0.00,,CLR,0.00,VWS V14.01,2013-07-13 09:12:00,
2013-07-13 05:17:00,56.9,53.7,29.94,East,86,0.0,0.0,89,0.00,,CLR,0.00,VWS V14.01,2013-07-13 09:17:00,
2013-07-13 05:22:00,56.9,53.7,29.94,East,86,0.0,0.0,89,0.00,,CLR,0.00,VWS V14.01,2013-07-13 09:22:00,
2013-07-13 05:27:00,56.9,53.7,29.94,East,86,0.0,0.0,89,0.00,,CLR,0.00,VWS V14.01,2013-07-13 09:27:00,
2013-07-13 05:32:00,56.9,53.7,29.94,East,86,0.0,0.0,89,0.00,,CLR,0.00,VWS V14.01,2013-07-13 09:32:00,
2013-07-13 05:37:00,56.7,53.5,29.94,East,86,0.0,0.0,89,0.00,,CLR,0.00,VWS V14.01,2013-07-13 09:37:00,
2013-07-13 05:47:00,56.6,53.7,29.94,East,86,0.0,0.0,90,0.00,,CLR,0.00,VWS V14.01,2013-07-13 09:47:00,
2013-07-13 05:57:00,56.6,53.7,29.94,East,86,0.0,0.0,90,0.00,,CLR,0.00,VWS V14.01,2013-07-13 09:57:00,
2013-07-13 06:02:00,56.6,53.7,29.94,East,86,0.0,0.0,90,0.00,,CLR,0.00,VWS V14.01,2013-07-13 10:02:00,
2013-07-13 06:07:00,56.5,53.6,29.94,East,86,0.0,0.0,90,0.00,,CLR,0.00,VWS V14.01,2013-07-13 10:07:00,
2013-07-13 06:12:00,56.6,53.7,29.94,East,86,0.0,0.0,90,0.00,,CLR,0.00,VWS V14.01,2013-07-13 10:12:00,
2013-07-13 06:22:00,56.9,54.3,29.94,East,86,0.0,0.0,91,0.00,,CLR,0.00,VWS V14.01,2013-07-13 10:22:00,
2013-07-13 06:27:00,57.0,54.4,29.94,East,86,0.0,0.0,91,0.00,,CLR,0.00,VWS V14.01,2013-07-13 10:27:00,
2013-07-13 06:32:00,56.9,54.0,29.94,East,86,0.0,0.0,90,0.00,,CLR,0.00,VWS V14.01,2013-07-13 10:32:00,
2013-07-13 06:37:00,56.9,54.3,29.94,East,86,0.0,0.0,91,0.00,,CLR,0.00,VWS V14.01,2013-07-13 10:37:00,
2013-07-13 06:42:00,57.0,54.4,29.94,East,86,0.0,0.0,91,0.00,,CLR,0.00,VWS V14.01,2013-07-13 10:42:00,
2013-07-13 06:47:00,57.0,54.4,29.96,East,86,0.0,0.0,91,0.00,,CLR,0.00,VWS V14.01,2013-07-13 10:47:00,
2013-07-13 06:57:00,57.8,55.2,29.96,East,86,0.0,0.0,91,0.00,,CLR,0.00,VWS V14.01,2013-07-13 10:57:00,
2013-07-13 07:07:00,58.3,55.4,29.96,East,86,0.0,0.0,90,0.00,,CLR,0.00,VWS V14.01,2013-07-13 11:07:00,
2013-07-13 07:12:00,58.7,55.8,29.96,East,86,0.0,0.0,90,0.00,,CLR,0.00,VWS V14.01,2013-07-13 11:12:00,
2013-07-13 07:22:00,59.8,56.6,29.96,East,86,0.0,0.0,89,0.00,,CLR,0.00,VWS V14.01,2013-07-13 11:22:00,
2013-07-13 07:32:00,61.3,58.0,29.95,East,86,0.0,0.0,89,0.00,,CLR,0.00,VWS V14.01,2013-07-13 11:32:00,
2013-07-13 07:42:00,62.4,58.2,29.95,East,88,0.0,0.0,86,0.00,,CLR,0.00,VWS V14.01,2013-07-13 11:42:00,
2013-07-13 07:52:00,63.4,58.5,29.95,East,88,0.0,0.0,84,0.00,,CLR,0.00,VWS V14.01,2013-07-13 11:52:00,
2013-07-13 07:57:00,63.9,58.6,29.95,East,90,0.0,0.0,83,0.00,,CLR,0.00,VWS V14.01,2013-07-13 11:57:00,
2013-07-13 08:02:00,64.5,59.2,29.94,East,90,0.0,0.0,83,0.00,,CLR,0.00,VWS V14.01,2013-07-13 12:02:00,
2013-07-13 08:12:00,66.1,60.5,29.94,East,89,0.0,0.0,82,0.00,,CLR,0.00,VWS V14.01,2013-07-13 12:12:00,
2013-07-13 08:17:00,67.3,61.3,29.94,East,89,0.0,0.0,81,0.00,,CLR,0.00,VWS V14.01,2013-07-13 12:17:00,
2013-07-13 08:22:00,67.9,61.2,29.94,East,89,0.0,0.0,79,0.00,,CLR,0.00,VWS V14.01,2013-07-13 12:22:00,
2013-07-13 08:32:00,68.4,60.9,29.94,East,100,0.0,0.0,77,0.00,,CLR,0.00,VWS V14.01,2013-07-13 12:32:00,
2013-07-13 08:37:00,68.6,60.7,29.94,ESE,121,0.0,0.0,76,0.00,,CLR,0.00,VWS V14.01,2013-07-13 12:37:00,
2013-07-13 08:42:00,68.8,60.9,29.94,ESE,110,0.0,0.0,76,0.00,,CLR,0.00,VWS V14.01,2013-07-13 12:42:00,
2013-07-13 08:47:00,69.3,61.4,29.94,ESE,119,0.0,0.0,76,0.00,,CLR,0.00,VWS V14.01,2013-07-13 12:47:00,
2013-07-13 08:52:00,69.8,61.5,29.94,ESE,103,0.0,0.0,75,0.00,,CLR,0.00,VWS V14.01,2013-07-13 12:52:00,
2013-07-13 08:57:00,70.6,62.3,29.94,ESE,104,0.0,0.0,75,0.00,,CLR,0.00,VWS V14.01,2013-07-13 12:57:00,
2013-07-13 09:02:00,71.1,61.6,29.95,East,97,0.0,0.0,72,0.00,,CLR,0.00,VWS V14.01,2013-07-13 13:02:00,
2013-07-13 09:07:00,71.5,62.0,29.95,East,92,0.0,0.0,72,0.00,,CLR,0.00,VWS V14.01,2013-07-13 13:07:00,
2013-07-13 09:12:00,71.8,61.9,29.95,ESE,116,0.0,0.0,71,0.00,,CLR,0.00,VWS V14.01,2013-07-13 13:12:00,
2013-07-13 09:22:00,72.1,61.8,29.96,ESE,106,0.0,0.0,70,0.00,,CLR,0.00,VWS V14.01,2013-07-13 13:22:00,
2013-07-13 09:27:00,72.5,62.6,29.96,East,99,0.0,0.0,71,0.00,,CLR,0.00,VWS V14.01,2013-07-13 13:27:00,
2013-07-13 09:32:00,73.5,62.7,29.95,East,90,0.0,0.0,69,0.00,,CLR,0.00,VWS V14.01,2013-07-13 13:32:00,
2013-07-13 09:37:00,74.0,62.8,29.95,East,100,0.0,0.0,68,0.00,,CLR,0.00,VWS V14.01,2013-07-13 13:37:00,
2013-07-13 09:42:00,74.2,63.0,29.95,ESE,112,0.0,0.0,68,0.00,,CLR,0.00,VWS V14.01,2013-07-13 13:42:00,
2013-07-13 09:47:00,75.8,63.6,29.95,East,80,0.0,0.0,66,0.00,,CLR,0.00,VWS V14.01,2013-07-13 13:47:00,
2013-07-13 09:57:00,76.5,62.5,29.95,East,92,0.0,0.0,62,0.00,,CLR,0.00,VWS V14.01,2013-07-13 13:57:00,
2013-07-13 10:02:00,76.7,63.2,29.95,East,93,0.0,0.0,63,0.00,,CLR,0.00,VWS V14.01,2013-07-13 14:02:00,
2013-07-13 10:07:00,77.2,63.2,29.95,East,86,0.0,0.0,62,0.00,,CLR,0.00,VWS V14.01,2013-07-13 14:07:00,
2013-07-13 10:12:00,77.4,63.4,29.95,ENE,76,0.0,0.0,62,0.00,,CLR,0.00,VWS V14.01,2013-07-13 14:12:00,
2013-07-13 10:22:00,78.1,63.6,29.95,ENE,75,0.0,0.0,61,0.00,,CLR,0.00,VWS V14.01,2013-07-13 14:22:00,
2013-07-13 10:27:00,77.9,63.4,29.95,ENE,72,0.0,0.0,61,0.00,,CLR,0.00,VWS V14.01,2013-07-13 14:27:00,
2013-07-13 10:32:00,78.1,63.6,29.95,ENE,75,0.0,0.0,61,0.00,,CLR,0.00,VWS V14.01,2013-07-13 14:32:00,
2013-07-13 10:37:00,78.6,63.1,29.95,East,83,0.0,0.0,59,0.00,,CLR,0.00,VWS V14.01,2013-07-13 14:37:00,
2013-07-13 10:42:00,79.8,62.2,29.95,East,85,0.0,0.0,55,0.00,,CLR,0.00,VWS V14.01,2013-07-13 14:42:00,
2013-07-13 10:47:00,80.3,61.6,29.95,East,88,0.0,0.0,53,0.00,,CLR,0.00,VWS V14.01,2013-07-13 14:47:00,
2013-07-13 10:57:00,80.3,62.2,29.95,East,89,0.0,0.0,54,0.00,,CLR,0.00,VWS V14.01,2013-07-13 14:57:00,
2013-07-13 11:02:00,81.2,62.5,29.96,East,80,0.0,0.0,53,0.00,,CLR,0.00,VWS V14.01,2013-07-13 15:02:00,
2013-07-13 11:12:00,81.1,62.4,29.96,East,83,0.0,0.0,53,0.00,,CLR,0.00,VWS V14.01,2013-07-13 15:12:00,
2013-07-13 11:17:00,81.2,62.5,29.96,East,88,0.0,0.0,53,0.00,,CLR,0.00,VWS V14.01,2013-07-13 15:17:00,
2013-07-13 11:22:00,81.4,62.6,29.96,East,89,0.0,0.0,53,0.00,,CLR,0.00,VWS V14.01,2013-07-13 15:22:00,
2013-07-13 11:27:00,82.2,62.3,29.96,East,86,0.0,0.0,51,0.00,,CLR,0.00,VWS V14.01,2013-07-13 15:27:00,
2013-07-13 11:32:00,83.0,61.9,29.96,East,85,0.0,0.0,49,0.00,,CLR,0.00,VWS V14.01,2013-07-13 15:32:00,
2013-07-13 11:37:00,82.4,59.0,29.96,ESE,110,0.0,0.0,45,0.00,,CLR,0.00,VWS V14.01,2013-07-13 15:37:00,
2013-07-13 11:42:00,82.2,60.6,29.96,ESE,107,0.0,0.0,48,0.00,,CLR,0.00,VWS V14.01,2013-07-13 15:42:00,
2013-07-13 11:52:00,83.6,60.0,29.96,ESE,104,0.0,0.0,45,0.00,,CLR,0.00,VWS V14.01,2013-07-13 15:52:00,
2013-07-13 12:02:00,82.8,59.3,29.96,ESE,112,0.0,0.0,45,0.00,,CLR,0.00,VWS V14.01,2013-07-13 16:02:00,
2013-07-13 12:07:00,83.2,59.0,29.96,East,80,0.0,0.0,44,0.00,,CLR,0.00,VWS V14.01,2013-07-13 16:07:00,
2013-07-13 12:12:00,84.0,57.8,29.96,ENE,75,0.0,0.0,41,0.00,,CLR,0.00,VWS V14.01,2013-07-13 16:12:00,
2013-07-13 12:17:00,84.3,58.7,29.95,ESE,109,0.0,0.0,42,0.00,,CLR,0.00,VWS V14.01,2013-07-13 16:17:00,
2013-07-13 12:22:00,83.2,59.0,29.95,ESE,106,0.0,0.0,44,0.00,,CLR,0.00,VWS V14.01,2013-07-13 16:22:00,
2013-07-13 12:27:00,82.6,59.1,29.95,East,90,0.0,0.0,45,0.00,,CLR,0.00,VWS V14.01,2013-07-13 16:27:00,
2013-07-13 12:32:00,83.4,59.8,29.96,ESE,102,0.0,0.0,45,0.00,,CLR,0.00,VWS V14.01,2013-07-13 16:32:00,
2013-07-13 12:42:00,83.6,59.4,29.96,SE,124,0.0,0.0,44,0.00,,CLR,0.00,VWS V14.01,2013-07-13 16:42:00,
2013-07-13 12:47:00,83.4,59.8,29.96,SE,133,0.0,0.0,45,0.00,,CLR,0.00,VWS V14.01,2013-07-13 16:47:00,
2013-07-13 12:52:00,83.4,59.8,29.96,ESE,110,0.0,0.0,45,0.00,,CLR,0.00,VWS V14.01,2013-07-13 16:52:00,
2013-07-13 12:57:00,83.4,59.8,29.96,ESE,104,0.0,0.0,45,0.00,,CLR,0.00,VWS V14.01,2013-07-13 16:57:00,
2013-07-13 13:07:00,83.6,60.0,29.95,East,93,0.0,0.0,45,0.00,,CLR,0.00,VWS V14.01,2013-07-13 17:07:00,
2013-07-13 13:12:00,84.0,61.0,29.95,ESE,110,0.0,0.0,46,0.00,,CLR,0.00,VWS V14.01,2013-07-13 17:12:00,
2013-07-13 13:17:00,84.1,61.1,29.95,ESE,102,0.0,0.0,46,0.00,,CLR,0.00,VWS V14.01,2013-07-13 17:17:00,
2013-07-13 13:22:00,84.0,60.4,29.95,East,99,0.0,0.0,45,0.00,,CLR,0.00,VWS V14.01,2013-07-13 17:22:00,
2013-07-13 13:27:00,83.8,60.2,29.95,SE,126,0.0,0.0,45,0.00,,CLR,0.00,VWS V14.01,2013-07-13 17:27:00,
2013-07-13 13:32:00,83.8,60.8,29.96,East,79,0.0,0.0,46,0.00,,CLR,0.00,VWS V14.01,2013-07-13 17:32:00,
2013-07-13 13:37:00,82.6,59.8,29.96,ESE,119,0.0,0.0,46,0.00,,CLR,0.00,VWS V14.01,2013-07-13 17:37:00,
2013-07-13 13:42:00,83.2,60.3,29.96,East,97,0.0,0.0,46,0.00,,CLR,0.00,VWS V14.01,2013-07-13 17:42:00,
2013-07-13 13:47:00,84.3,58.7,29.95,ESE,110,0.0,0.0,42,0.00,,CLR,0.00,VWS V14.01,2013-07-13 17:47:00,
2013-07-13 13:57:00,85.3,59.0,29.95,ESE,116,0.0,0.0,41,0.00,,CLR,0.00,VWS V14.01,2013-07-13 17:57:00,
2013-07-13 14:02:00,84.9,59.9,29.95,East,80,0.0,0.0,43,0.00,,CLR,0.00,VWS V14.01,2013-07-13 18:02:00,
2013-07-13 14:12:00,86.3,59.8,29.95,ESE,104,0.0,0.0,41,0.00,,CLR,0.00,VWS V14.01,2013-07-13 18:12:00,
2013-07-13 14:22:00,85.1,58.8,29.95,ESE,112,0.0,0.0,41,0.00,,CLR,0.00,VWS V14.01,2013-07-13 18:22:00,
2013-07-13 14:27:00,84.5,59.6,29.95,ESE,117,0.0,0.0,43,0.00,,CLR,0.00,VWS V14.01,2013-07-13 18:27:00,
2013-07-13 14:32:00,84.0,59.8,29.95,ESE,117,0.0,0.0,44,0.00,,CLR,0.00,VWS V14.01,2013-07-13 18:32:00,
2013-07-13 14:42:00,83.0,61.3,29.95,ESE,103,0.0,0.0,48,0.00,,BKN060,0.00,VWS V14.01,2013-07-13 18:42:00,
2013-07-13 14:47:00,84.9,59.9,29.94,ESE,123,0.0,0.0,43,0.00,,BKN060,0.00,VWS V14.01,2013-07-13 18:47:00,
2013-07-13 14:57:00,84.1,60.5,29.94,ESE,109,0.0,0.0,45,0.00,,BKN060,0.00,VWS V14.01,2013-07-13 18:57:00,
2013-07-13 15:02:00,84.9,59.9,29.93,ESE,112,0.0,0.0,43,0.00,,BKN060,0.00,VWS V14.01,2013-07-13 19:02:00,
2013-07-13 15:12:00,85.9,59.5,29.93,ESE,116,0.0,0.0,41,0.00,,BKN060,0.00,VWS V14.01,2013-07-13 19:12:00,
2013-07-13 15:17:00,84.0,58.5,29.94,ESE,102,0.0,0.0,42,0.00,,BKN060,0.00,VWS V14.01,2013-07-13 19:17:00,
2013-07-13 15:22:00,84.7,59.1,29.94,SSE,158,0.0,0.0,42,0.00,,BKN060,0.00,VWS V14.01,2013-07-13 19:22:00,
2013-07-13 15:27:00,84.7,59.1,29.94,ESE,121,0.0,0.0,42,0.00,,BKN060,0.00,VWS V14.01,2013-07-13 19:27:00,
2013-07-13 15:32:00,85.3,61.6,29.93,ENE,71,0.0,0.0,45,0.00,,BKN060,0.00,VWS V14.01,2013-07-13 19:32:00,
2013-07-13 15:37:00,84.9,61.2,29.93,ENE,72,0.0,0.0,45,0.00,,BKN060,0.00,VWS V14.01,2013-07-13 19:37:00,
2013-07-13 15:42:00,84.7,60.4,29.93,ESE,116,0.0,0.0,44,0.00,,SCT047,0.00,VWS V14.01,2013-07-13 19:42:00,
2013-07-13 15:47:00,84.9,59.9,29.93,East,100,0.0,0.0,43,0.00,,SCT047,0.00,VWS V14.01,2013-07-13 19:47:00,
2013-07-13 15:52:00,85.3,60.3,29.93,ESE,114,0.0,0.0,43,0.00,,SCT047,0.00,VWS V14.01,2013-07-13 19:52:00,
2013-07-13 16:02:00,84.9,60.6,29.93,East,86,0.0,0.0,44,0.00,,SCT047,0.00,VWS V14.01,2013-07-13 20:02:00,
2013-07-13 16:07:00,85.1,58.8,29.93,ESE,107,0.0,0.0,41,0.00,,SCT047,0.00,VWS V14.01,2013-07-13 20:07:00,
2013-07-13 16:12:00,84.7,59.8,29.93,ESE,110,0.0,0.0,43,0.00,,SCT047,0.00,VWS V14.01,2013-07-13 20:12:00,
2013-07-13 16:17:00,85.1,60.8,29.93,ESE,107,0.0,0.0,44,0.00,,SCT047,0.00,VWS V14.01,2013-07-13 20:17:00,
2013-07-13 16:22:00,84.7,58.4,29.93,ESE,107,0.0,0.0,41,0.00,,SCT047,0.00,VWS V14.01,2013-07-13 20:22:00,
2013-07-13 16:27:00,85.5,59.8,29.93,ESE,112,0.0,0.0,42,0.00,,SCT047,0.00,VWS V14.01,2013-07-13 20:27:00,
2013-07-13 16:32:00,85.5,60.5,29.93,East,89,0.0,0.0,43,0.00,,SCT047,0.00,VWS V14.01,2013-07-13 20:32:00,
2013-07-13 16:37:00,84.7,60.4,29.93,ESE,116,0.0,0.0,44,0.00,,SCT047,0.00,VWS V14.01,2013-07-13 20:37:00,
2013-07-13 16:47:00,83.4,59.8,29.93,ESE,110,0.0,0.0,45,0.00,,BKN060,0.00,VWS V14.01,2013-07-13 20:47:00,
2013-07-13 16:52:00,83.8,59.6,29.93,ESE,110,0.0,0.0,44,0.00,,BKN060,0.00,VWS V14.01,2013-07-13 20:52:00,
2013-07-13 16:57:00,84.5,60.2,29.93,ESE,114,0.0,0.0,44,0.00,,BKN060,0.00,VWS V14.01,2013-07-13 20:57:00,
2013-07-13 17:07:00,84.9,60.6,29.92,ENE,75,0.0,0.0,44,0.00,,BKN060,0.00,VWS V14.01,2013-07-13 21:07:00,
2013-07-13 17:12:00,84.9,59.9,29.92,ESE,109,0.0,0.0,43,0.00,,BKN060,0.00,VWS V14.01,2013-07-13 21:12:00,
2013-07-13 17:17:00,84.3,60.0,29.92,ESE,120,0.0,0.0,44,0.00,,BKN060,0.00,VWS V14.01,2013-07-13 21:17:00,
2013-07-13 17:22:00,84.1,59.9,29.92,ESE,102,0.0,0.0,44,0.00,,BKN060,0.00,VWS V14.01,2013-07-13 21:22:00,
2013-07-13 17:27:00,84.7,60.4,29.92,ENE,78,0.0,0.0,44,0.00,,BKN060,0.00,VWS V14.01,2013-07-13 21:27:00,
2013-07-13 17:32:00,84.9,60.6,29.92,ESE,112,0.0,0.0,44,0.00,,BKN060,0.00,VWS V14.01,2013-07-13 21:32:00,
2013-07-13 17:37:00,84.5,58.9,29.92,ESE,107,0.0,0.0,42,0.00,,BKN060,0.00,VWS V14.01,2013-07-13 21:37:00,
2013-07-13 17:42:00,84.5,60.2,29.92,East,86,0.0,0.0,44,0.00,,SCT070,0.00,VWS V14.01,2013-07-13 21:42:00,
2013-07-13 17:47:00,84.7,61.0,29.92,East,93,0.0,0.0,45,0.00,,SCT070,0.00,VWS V14.01,2013-07-13 21:47:00,
2013-07-13 17:52:00,84.9,61.2,29.92,East,80,0.0,0.0,45,0.00,,SCT070,0.00,VWS V14.01,2013-07-13 21:52:00,
2013-07-13 17:57:00,85.1,60.8,29.92,ESE,114,0.0,0.0,44,0.00,,SCT070,0.00,VWS V14.01,2013-07-13 21:57:00,
2013-07-13 18:02:00,84.3,59.4,29.92,ESE,113,0.0,0.0,43,0.00,,SCT070,0.00,VWS V14.01,2013-07-13 22:02:00,
2013-07-13 18:07:00,84.0,60.4,29.92,East,86,0.0,0.0,45,0.00,,SCT070,0.00,VWS V14.01,2013-07-13 22:07:00,
2013-07-13 18:17:00,84.5,60.8,29.92,ESE,112,0.0,0.0,45,0.00,,SCT070,0.00,VWS V14.01,2013-07-13 22:17:00,
2013-07-13 18:22:00,84.1,60.5,29.92,East,83,0.0,0.0,45,0.00,,SCT070,0.00,VWS V14.01,2013-07-13 22:22:00,
2013-07-13 18:27:00,84.1,60.5,29.92,ESE,120,0.0,0.0,45,0.00,,SCT070,0.00,VWS V14.01,2013-07-13 22:27:00,
2013-07-13 18:32:00,83.8,60.8,29.92,ESE,113,0.0,0.0,46,0.00,,SCT070,0.00,VWS V14.01,2013-07-13 22:32:00,
2013-07-13 18:37:00,83.6,61.3,29.92,ESE,104,0.0,0.0,47,0.00,,SCT070,0.00,VWS V14.01,2013-07-13 22:37:00,
2013-07-13 18:42:00,83.4,60.5,29.92,ESE,113,0.0,0.0,46,0.00,,SCT075,0.00,VWS V14.01,2013-07-13 22:42:00,
2013-07-13 18:47:00,83.6,60.7,29.92,ESE,107,0.0,0.0,46,0.00,,SCT075,0.00,VWS V14.01,2013-07-13 22:47:00,
2013-07-13 18:52:00,83.6,61.3,29.92,ENE,78,0.0,0.0,47,0.00,,SCT075,0.00,VWS V14.01,2013-07-13 22:52:00,
2013-07-13 18:57:00,83.2,60.9,29.92,East,100,0.0,0.0,47,0.00,,SCT075,0.00,VWS V14.01,2013-07-13 22:57:00,
2013-07-13 19:02:00,83.0,60.7,29.92,ESE,109,0.0,0.0,47,0.00,,SCT075,0.00,VWS V14.01,2013-07-13 23:02:00,
2013-07-13 19:07:00,83.0,61.3,29.92,East,97,0.0,0.0,48,0.00,,SCT075,0.00,VWS V14.01,2013-07-13 23:07:00,
2013-07-13 19:12:00,82.6,60.9,29.92,ESE,107,0.0,0.0,48,0.00,,SCT075,0.00,VWS V14.01,2013-07-13 23:12:00,
2013-07-13 19:17:00,83.0,62.5,29.92,ESE,102,0.0,0.0,50,0.00,,SCT075,0.00,VWS V14.01,2013-07-13 23:17:00,
2013-07-13 19:27:00,82.8,61.1,29.92,ESE,116,0.0,0.0,48,0.00,,SCT075,0.00,VWS V14.01,2013-07-13 23:27:00,
2013-07-13 19:32:00,82.6,61.5,29.92,ESE,109,0.0,0.0,49,0.00,,SCT075,0.00,VWS V14.01,2013-07-13 23:32:00,
2013-07-13 19:37:00,82.6,62.1,29.92,ESE,112,0.0,0.0,50,0.00,,SCT075,0.00,VWS V14.01,2013-07-13 23:37:00,
2013-07-13 19:42:00,82.6,62.1,29.92,East,82,0.0,0.0,50,0.00,,FEW050,0.00,VWS V14.01,2013-07-13 23:42:00,
2013-07-13 19:47:00,82.6,63.2,29.92,East,83,0.0,0.0,52,0.00,,FEW050,0.00,VWS V14.01,2013-07-13 23:47:00,
2013-07-13 19:57:00,82.0,62.7,29.92,East,83,0.0,0.0,52,0.00,,FEW050,0.00,VWS V14.01,2013-07-13 23:57:00,
2013-07-13 20:07:00,81.4,62.6,29.92,East,92,0.0,0.0,53,0.00,,FEW050,0.00,VWS V14.01,2013-07-14 00:07:00,
2013-07-13 20:12:00,81.2,63.5,29.92,East,93,0.0,0.0,55,0.00,,FEW050,0.00,VWS V14.01,2013-07-14 00:12:00,
2013-07-13 20:17:00,80.9,63.2,29.91,East,92,0.0,0.0,55,0.00,,FEW050,0.00,VWS V14.01,2013-07-14 00:17:00,
2013-07-13 20:22:00,80.5,63.4,29.91,East,88,0.0,0.0,56,0.00,,FEW050,0.00,VWS V14.01,2013-07-14 00:22:00,
2013-07-13 20:32:00,79.6,63.5,29.91,East,88,0.0,0.0,58,0.00,,FEW050,0.00,VWS V14.01,2013-07-14 00:32:00,
2013-07-13 20:37:00,79.2,63.7,29.91,East,88,0.0,0.0,59,0.00,,FEW050,0.00,VWS V14.01,2013-07-14 00:37:00,
2013-07-13 20:42:00,78.8,63.3,29.91,East,88,0.0,0.0,59,0.00,,CLR,0.00,VWS V14.01,2013-07-14 00:42:00,
2013-07-13 20:47:00,78.6,63.6,29.91,East,88,0.0,0.0,60,0.00,,CLR,0.00,VWS V14.01,2013-07-14 00:47:00,
2013-07-13 20:52:00,78.5,64.0,29.91,East,88,0.0,0.0,61,0.00,,CLR,0.00,VWS V14.01,2013-07-14 00:52:00,
2013-07-13 20:57:00,78.1,64.0,29.91,East,88,0.0,0.0,62,0.00,,CLR,0.00,VWS V14.01,2013-07-14 00:57:00,
2013-07-13 21:02:00,77.6,64.0,29.92,East,88,0.0,0.0,63,0.00,,CLR,0.00,VWS V14.01,2013-07-14 01:02:00,
2013-07-13 21:12:00,76.5,63.9,29.92,East,88,0.0,0.0,65,0.00,,CLR,0.00,VWS V14.01,2013-07-14 01:12:00,
2013-07-13 21:17:00,76.1,63.9,29.92,East,88,0.0,0.0,66,0.00,,CLR,0.00,VWS V14.01,2013-07-14 01:17:00,
2013-07-13 21:22:00,76.0,63.8,29.92,East,88,0.0,0.0,66,0.00,,CLR,0.00,VWS V14.01,2013-07-14 01:22:00,
2013-07-13 21:27:00,75.8,64.1,29.92,East,88,0.0,0.0,67,0.00,,CLR,0.00,VWS V14.01,2013-07-14 01:27:00,
2013-07-13 21:37:00,75.3,64.0,29.92,East,88,0.0,0.0,68,0.00,,CLR,0.00,VWS V14.01,2013-07-14 01:37:00,
2013-07-13 21:42:00,74.9,64.1,29.92,East,88,0.0,0.0,69,0.00,,CLR,0.00,VWS V14.01,2013-07-14 01:42:00,
2013-07-13 21:52:00,74.4,64.4,29.93,East,88,0.0,0.0,71,0.00,,CLR,0.00,VWS V14.01,2013-07-14 01:52:00,
2013-07-13 21:57:00,74.2,64.2,29.93,East,88,0.0,0.0,71,0.00,,CLR,0.00,VWS V14.01,2013-07-14 01:57:00,
2013-07-13 22:02:00,73.9,64.3,29.93,East,88,0.0,0.0,72,0.00,,CLR,0.00,VWS V14.01,2013-07-14 02:02:00,
2013-07-13 22:07:00,73.7,64.1,29.93,East,88,0.0,0.0,72,0.00,,CLR,0.00,VWS V14.01,2013-07-14 02:07:00,
2013-07-13 22:17:00,72.7,63.9,29.94,East,88,0.0,0.0,74,0.00,,CLR,0.00,VWS V14.01,2013-07-14 02:17:00,
2013-07-13 22:22:00,72.7,63.9,29.94,East,88,0.0,0.0,74,0.00,,CLR,0.00,VWS V14.01,2013-07-14 02:22:00,
2013-07-13 22:32:00,72.8,64.0,29.94,East,88,0.0,0.0,74,0.00,,CLR,0.00,VWS V14.01,2013-07-14 02:32:00,
2013-07-13 22:37:00,72.8,63.7,29.94,East,88,0.0,0.0,73,0.00,,CLR,0.00,VWS V14.01,2013-07-14 02:37:00,
2013-07-13 22:47:00,72.8,64.0,29.94,East,83,0.0,0.0,74,0.00,,CLR,0.00,VWS V14.01,2013-07-14 02:47:00,
2013-07-13 22:52:00,72.7,63.9,29.94,East,83,0.0,0.0,74,0.00,,CLR,0.00,VWS V14.01,2013-07-14 02:52:00,
2013-07-13 23:02:00,72.5,64.1,29.94,East,83,0.0,0.0,75,0.00,,CLR,0.00,VWS V14.01,2013-07-14 03:02:00,
2013-07-13 23:12:00,72.1,63.8,29.94,East,83,0.0,0.0,75,0.00,,CLR,0.00,VWS V14.01,2013-07-14 03:12:00,
2013-07-13 23:17:00,72.0,63.7,29.96,East,83,0.0,0.0,75,0.00,,CLR,0.00,VWS V14.01,2013-07-14 03:17:00,
2013-07-13 23:27:00,71.5,63.9,29.96,East,83,0.0,0.0,77,0.00,,CLR,0.00,VWS V14.01,2013-07-14 03:27:00,
2013-07-13 23:32:00,71.1,63.5,29.96,East,83,0.0,0.0,77,0.00,,CLR,0.00,VWS V14.01,2013-07-14 03:32:00,
2013-07-13 23:37:00,70.9,63.7,29.96,East,83,0.0,0.0,78,0.00,,CLR,0.00,VWS V14.01,2013-07-14 03:37:00,
2013-07-13 23:42:00,70.6,63.8,29.96,East,83,0.0,0.0,79,0.00,,SCT055,0.00,VWS V14.01,2013-07-14 03:42:00,
2013-07-13 23:47:00,70.6,63.8,29.96,East,83,0.0,0.0,79,0.00,,SCT055,0.00,VWS V14.01,2013-07-14 03:47:00,
2013-07-13 23:52:00,70.4,63.6,29.96,East,83,0.0,0.0,79,0.00,,SCT055,0.00,VWS V14.01,2013-07-14 03:52:00,
2013-07-13 23:57:00,70.3,63.8,29.96,East,83,0.0,0.0,80,0.00,,SCT055,0.00,VWS V14.01,2013-07-14 03:57:00,